Time;durP1;ratioP1;P1;durP2;ratioP2;P2;SDS_P1;SDS_P2;PMS_P1;PMS_P2;Temp;Humidity;BMP_temperature;BMP_pressure;BME280_temperature;BME280_humidity;BME280_pressure;Samples;Min_cycle;Max_cycle;Signal;HPM_P1;HPM_P2
2022/05/12 11:36:45;;;;;;;1.23;0.90;;;21.90;99.90;;;;;;5072159;27;20535;-61
2022/05/12 11:39:26;;;;;;;1.40;1.10;;;22.30;99.90;;;;;;5061430;28;20448;-64
2022/05/12 11:44:34;;;;;;;2.90;1.00;;;23.10;99.90;;;;;;5086943;27;20574;-57
2022/05/12 11:47:24;;;;;;;4.30;0.90;;;22.90;99.90;;;;;;5056998;28;20478;-60
2022/05/12 11:50:17;;;;;;;1.33;0.97;;;22.90;99.90;;;;;;5065589;28;20546;-59
2022/05/12 11:52:53;;;;;;;3.23;0.93;;;23.00;99.90;;;;;;5063951;28;20487;-60
2022/05/12 11:55:25;;;;;;;2.83;1.00;;;23.10;99.90;;;;;;5070906;28;20458;-61
2022/05/12 11:58:08;;;;;;;1.75;0.90;;;23.00;99.90;;;;;;5069486;28;20803;-59
2022/05/12 12:00:56;;;;;;;2.73;0.80;;;23.00;99.80;;;;;;5070427;28;20189;-59
2022/05/12 12:03:55;;;;;;;1.50;1.03;;;23.40;99.90;;;;;;5085304;28;20475;-58
2022/05/12 12:06:52;;;;;;;3.03;0.90;;;23.60;98.70;;;;;;5068406;28;20467;-59
2022/05/12 12:09:54;;;;;;;1.30;0.90;;;23.70;98.70;;;;;;5048098;28;20453;-58
2022/05/12 12:12:50;;;;;;;1.87;0.80;;;23.60;98.00;;;;;;5048324;28;20444;-62
2022/05/12 12:15:40;;;;;;;1.90;0.90;;;23.80;97.80;;;;;;5065054;28;20546;-60
2022/05/12 12:18:40;;;;;;;2.90;1.10;;;24.00;97.20;;;;;;5067934;28;20448;-60
2022/05/12 12:21:49;;;;;;;5.40;1.17;;;24.10;96.60;;;;;;5068537;28;20538;-59
2022/05/12 12:24:50;;;;;;;3.43;0.97;;;24.10;95.00;;;;;;5054093;28;20480;-59
2022/05/12 12:27:39;;;;;;;3.27;0.77;;;24.10;95.20;;;;;;5049449;28;20450;-59
2022/05/12 12:30:39;;;;;;;2.00;0.70;;;24.40;93.70;;;;;;5049400;28;20528;-60
2022/05/12 12:33:17;;;;;;;2.13;0.90;;;24.40;92.60;;;;;;5026533;28;20459;-59
2022/05/12 12:36:05;;;;;;;1.98;0.90;;;24.20;92.60;;;;;;5048706;28;20456;-60
2022/05/12 12:39:11;;;;;;;1.17;0.80;;;23.80;92.20;;;;;;5046086;28;20205;-60
2022/05/12 12:41:45;;;;;;;1.10;1.00;;;23.80;92.70;;;;;;5049269;28;20543;-61
2022/05/12 12:44:18;;;;;;;1.30;0.90;;;23.80;92.50;;;;;;5048810;28;20488;-62
2022/05/12 12:46:52;;;;;;;1.20;1.10;;;23.50;92.20;;;;;;5048943;28;20452;-59
2022/05/12 12:49:22;;;;;;;1.03;0.90;;;23.10;92.00;;;;;;5066483;28;20922;-59
2022/05/12 12:51:57;;;;;;;1.13;0.90;;;23.10;92.20;;;;;;5069014;28;20447;-59
2022/05/12 12:57:14;;;;;;;1.43;0.80;;;23.50;92.40;;;;;;5072018;28;20528;-58
2022/05/12 12:59:45;;;;;;;1.70;0.90;;;23.60;92.50;;;;;;5075373;28;20923;-59
2022/05/12 13:02:27;;;;;;;2.33;0.90;;;23.70;91.40;;;;;;5075306;28;20530;-59
2022/05/12 13:04:55;;;;;;;1.80;0.87;;;23.70;91.00;;;;;;5070729;28;20452;-59
2022/05/12 13:07:27;;;;;;;2.23;0.80;;;23.50;91.40;;;;;;5055277;28;20899;-59
2022/05/12 13:09:55;;;;;;;1.60;1.00;;;23.30;91.70;;;;;;5054698;28;20503;-60
2022/05/12 13:12:26;;;;;;;1.73;0.70;;;23.20;92.70;;;;;;5063524;28;20489;-59
2022/05/12 13:14:53;;;;;;;1.27;0.80;;;23.40;91.10;;;;;;5075115;28;20483;-59
2022/05/12 13:17:22;;;;;;;1.90;0.97;;;23.40;91.50;;;;;;5064807;28;20456;-59
2022/05/12 13:19:50;;;;;;;2.60;0.90;;;23.40;91.00;;;;;;5070301;28;20454;-59
2022/05/12 13:22:23;;;;;;;1.87;0.97;;;23.50;91.40;;;;;;5069123;28;20482;-59
2022/05/12 13:24:49;;;;;;;1.60;0.80;;;23.70;91.40;;;;;;5068869;28;20563;-59
2022/05/12 13:27:19;;;;;;;1.30;0.80;;;23.70;91.00;;;;;;5034762;28;20511;-60
2022/05/12 13:29:47;;;;;;;2.03;1.03;;;23.80;90.00;;;;;;5035499;28;20543;-60
2022/05/12 13:32:37;;;;;;;1.10;0.80;;;23.80;90.20;;;;;;5057502;28;20464;-60
2022/05/12 13:35:10;;;;;;;1.60;0.87;;;23.80;87.10;;;;;;5057567;28;20514;-60
2022/05/12 13:37:46;;;;;;;0.80;0.73;;;23.60;89.80;;;;;;5053871;28;20629;-59
2022/05/12 13:40:43;;;;;;;1.63;1.10;;;23.70;86.50;;;;;;5054805;28;20454;-60
2022/05/12 13:43:18;;;;;;;5.67;1.00;;;24.00;88.10;;;;;;5054349;28;21010;-60
2022/05/12 13:45:59;;;;;;;2.53;1.00;;;24.00;84.20;;;;;;5054699;28;20452;-59
2022/05/12 13:48:27;;;;;;;1.43;1.00;;;23.70;86.30;;;;;;5054800;28;20452;-60
2022/05/12 13:50:56;;;;;;;1.03;0.80;;;23.60;86.10;;;;;;5054608;28;20540;-60
2022/05/12 13:53:28;;;;;;;1.37;0.83;;;23.50;86.80;;;;;;5054545;28;20456;-59
2022/05/12 13:56:11;;;;;;;4.43;1.03;;;23.60;87.70;;;;;;5054322;28;20483;-60
2022/05/12 13:58:49;;;;;;;1.43;0.80;;;23.50;87.20;;;;;;5054636;28;20539;-60
2022/05/12 14:01:29;;;;;;;3.60;0.90;;;23.00;88.10;;;;;;5054345;28;21014;-59
2022/05/12 14:04:12;;;;;;;0.90;0.80;;;22.80;87.70;;;;;;5054175;28;20571;-59
2022/05/12 14:06:42;;;;;;;1.17;0.80;;;22.70;87.60;;;;;;5053199;28;20963;-60
2022/05/12 14:09:21;;;;;;;4.23;1.00;;;22.80;86.80;;;;;;5054346;28;20452;-60
2022/05/12 14:12:00;;;;;;;4.23;0.90;;;22.90;86.80;;;;;;5054337;28;20460;-60
2022/05/12 14:20:10;;;;;;;1.53;0.73;;;22.90;87.40;;;;;;5054179;28;20431;-60
2022/05/12 14:22:36;;;;;;;1.77;0.90;;;22.90;87.90;;;;;;5054124;28;20448;-60
2022/05/12 14:25:03;;;;;;;2.13;0.90;;;22.80;87.50;;;;;;5053920;28;20844;-60
2022/05/12 14:27:30;;;;;;;1.40;0.83;;;22.80;87.70;;;;;;5054238;28;20452;-60
2022/05/12 14:29:56;;;;;;;2.60;0.90;;;22.80;88.80;;;;;;5054079;28;20451;-60
2022/05/12 14:32:36;;;;;;;1.97;0.80;;;23.00;87.40;;;;;;5053311;28;20448;-60
2022/05/12 14:35:03;;;;;;;1.67;0.90;;;23.20;85.60;;;;;;5053670;28;20455;-60
2022/05/12 14:37:31;;;;;;;2.50;0.87;;;23.20;85.10;;;;;;5053477;28;20452;-60
2022/05/12 14:39:57;;;;;;;1.87;0.80;;;23.20;86.90;;;;;;5053881;28;20598;-59
2022/05/12 14:42:24;;;;;;;2.70;0.93;;;23.30;87.10;;;;;;5053701;28;20468;-60
2022/05/12 14:44:50;;;;;;;2.50;1.00;;;23.20;86.40;;;;;;5053657;28;20883;-60
2022/05/12 14:47:21;;;;;;;1.53;0.77;;;23.00;86.90;;;;;;5053672;28;20657;-60
2022/05/12 14:49:49;;;;;;;1.43;0.90;;;23.10;86.40;;;;;;5053410;28;20535;-59
2022/05/12 14:52:18;;;;;;;1.80;0.67;;;23.20;86.20;;;;;;5053250;28;20506;-60
2022/05/12 14:54:46;;;;;;;2.77;1.33;;;23.20;85.00;;;;;;5053537;28;20461;-60
2022/05/12 14:57:13;;;;;;;5.40;1.00;;;23.00;84.60;;;;;;5053400;28;20928;-60
2022/05/12 14:59:40;;;;;;;0.97;0.90;;;22.90;84.40;;;;;;5053512;28;20537;-60
2022/05/12 15:02:10;;;;;;;1.67;1.40;;;23.10;85.40;;;;;;5053452;28;20535;-60
2022/05/12 15:04:37;;;;;;;1.83;0.90;;;23.30;85.90;;;;;;5053060;28;20571;-60
2022/05/12 15:07:05;;;;;;;2.73;0.73;;;23.50;83.10;;;;;;5053431;28;20536;-60
2022/05/12 15:09:32;;;;;;;1.77;0.80;;;23.50;83.70;;;;;;5053297;28;20452;-59
2022/05/12 15:11:58;;;;;;;1.00;0.90;;;23.60;84.00;;;;;;5053263;28;20448;-60
2022/05/12 15:14:25;;;;;;;1.27;0.80;;;23.50;82.70;;;;;;5053166;28;20460;-60
2022/05/12 15:16:52;;;;;;;2.43;0.97;;;23.40;83.40;;;;;;5052758;28;20460;-59
2022/05/12 15:19:19;;;;;;;4.50;1.30;;;23.30;83.80;;;;;;5053074;28;20487;-60
2022/05/12 15:21:45;;;;;;;2.20;0.97;;;23.10;85.10;;;;;;5053106;28;20448;-59
2022/05/12 15:24:13;;;;;;;5.73;0.90;;;23.00;83.90;;;;;;5052842;28;20490;-59
2022/05/12 15:26:42;;;;;;;0.93;0.83;;;22.90;83.10;;;;;;5053045;28;20448;-59
2022/05/12 15:29:09;;;;;;;1.80;0.90;;;22.90;83.00;;;;;;5052980;28;20879;-59
2022/05/12 15:31:36;;;;;;;1.70;0.90;;;22.80;83.30;;;;;;5052842;28;20444;-60
2022/05/12 15:34:03;;;;;;;1.30;1.00;;;22.80;84.00;;;;;;5052679;28;20531;-60
2022/05/12 15:36:34;;;;;;;2.50;0.90;;;22.90;84.90;;;;;;5052961;28;20821;-59
2022/05/12 15:39:00;;;;;;;2.30;0.87;;;23.00;83.20;;;;;;5052892;28;20531;-60
2022/05/12 15:41:28;;;;;;;2.23;0.83;;;23.00;84.00;;;;;;5052976;28;20450;-60
2022/05/12 15:43:55;;;;;;;2.13;0.90;;;22.90;84.20;;;;;;5052471;28;20480;-60
2022/05/12 15:46:23;;;;;;;1.60;1.00;;;22.90;84.40;;;;;;5052728;28;20479;-59
2022/05/12 15:48:51;;;;;;;1.07;0.97;;;22.80;83.40;;;;;;5052918;28;20448;-60
2022/05/12 15:51:17;;;;;;;1.07;0.83;;;22.70;83.30;;;;;;5052857;28;20448;-60
2022/05/12 15:53:44;;;;;;;1.77;0.80;;;22.60;82.90;;;;;;5052761;28;20793;-60
2022/05/12 15:56:10;;;;;;;2.70;1.00;;;22.50;84.00;;;;;;5052697;28;20448;-60
2022/05/12 15:58:38;;;;;;;1.87;0.80;;;22.40;83.40;;;;;;5052619;28;20539;-59
2022/05/12 16:01:04;;;;;;;1.70;1.27;;;22.40;85.30;;;;;;5052497;28;20448;-60
2022/05/12 16:03:32;;;;;;;1.63;0.90;;;22.30;83.90;;;;;;5052564;28;20448;-59
2022/05/12 16:06:00;;;;;;;5.43;1.30;;;22.30;84.60;;;;;;5052684;28;20448;-60
2022/05/12 16:08:27;;;;;;;2.50;1.13;;;22.40;84.20;;;;;;5052606;28;20525;-59
2022/05/12 16:10:56;;;;;;;1.87;0.90;;;22.30;85.00;;;;;;5052608;28;20634;-60
2022/05/12 16:13:24;;;;;;;1.53;0.90;;;22.40;83.80;;;;;;5052387;28;20448;-60
2022/05/12 16:15:53;;;;;;;1.83;1.00;;;22.40;84.20;;;;;;5052649;28;20494;-60
2022/05/12 16:18:20;;;;;;;1.90;1.20;;;22.30;84.00;;;;;;5052530;28;20547;-60
2022/05/12 16:20:47;;;;;;;1.27;0.80;;;22.20;84.50;;;;;;5052584;28;20539;-59
2022/05/12 16:23:13;;;;;;;4.87;0.93;;;22.30;85.70;;;;;;5052470;28;20551;-60
2022/05/12 16:25:44;;;;;;;1.30;0.87;;;22.30;84.60;;;;;;5052294;28;20480;-60
2022/05/12 16:28:15;;;;;;;4.20;1.73;;;22.20;85.10;;;;;;5052301;28;20865;-60
2022/05/12 16:30:43;;;;;;;3.00;0.90;;;22.10;85.90;;;;;;5055447;28;20545;-60
2022/05/12 16:33:11;;;;;;;1.93;1.00;;;22.00;85.30;;;;;;5056232;28;20884;-60
2022/05/12 16:35:40;;;;;;;2.97;1.60;;;22.00;85.80;;;;;;5056155;28;20543;-60
2022/05/12 16:38:07;;;;;;;4.77;4.37;;;22.10;86.20;;;;;;5056015;28;20474;-60
2022/05/12 16:40:34;;;;;;;1.33;0.90;;;22.10;86.30;;;;;;5055926;28;21014;-60
2022/05/12 16:43:00;;;;;;;1.87;0.90;;;22.10;85.80;;;;;;5055909;28;20832;-60
2022/05/12 16:45:27;;;;;;;1.57;1.00;;;22.10;86.20;;;;;;5055975;28;20490;-60
2022/05/12 16:47:54;;;;;;;6.23;5.40;;;22.00;85.80;;;;;;5055905;28;20477;-59
2022/05/12 16:50:22;;;;;;;2.17;1.97;;;22.10;87.00;;;;;;5055591;28;20452;-60
2022/05/12 16:52:48;;;;;;;1.20;1.10;;;22.20;87.30;;;;;;5055701;28;20542;-60
2022/05/12 16:55:15;;;;;;;2.67;0.90;;;22.10;86.80;;;;;;5055626;28;20452;-60
2022/05/12 16:57:42;;;;;;;1.57;1.00;;;22.10;86.20;;;;;;5055864;28;20458;-60
2022/05/12 17:00:10;;;;;;;2.00;1.00;;;22.00;84.80;;;;;;5055729;28;20518;-59
2022/05/12 17:02:37;;;;;;;1.17;1.07;;;22.00;85.50;;;;;;5055452;28;20999;-59
2022/05/12 17:05:05;;;;;;;2.23;1.00;;;22.00;83.40;;;;;;5055489;28;20994;-59
2022/05/12 17:07:33;;;;;;;2.03;1.73;;;21.90;84.20;;;;;;5055362;28;20539;-59
2022/05/12 17:10:00;;;;;;;1.90;1.13;;;21.80;84.60;;;;;;5055639;28;20539;-59
2022/05/12 17:12:28;;;;;;;1.20;1.10;;;21.80;85.10;;;;;;5055537;28;20543;-59
2022/05/12 17:14:55;;;;;;;2.83;1.27;;;21.70;85.50;;;;;;5055445;28;20808;-59
2022/05/12 17:17:22;;;;;;;1.30;1.10;;;21.70;86.00;;;;;;5055433;28;20452;-59
2022/05/12 17:19:48;;;;;;;0.90;0.70;;;21.70;86.00;;;;;;5055244;28;20535;-59
2022/05/12 17:22:15;;;;;;;2.17;0.97;;;21.70;86.40;;;;;;5055091;28;20491;-60
2022/05/12 17:24:43;;;;;;;1.27;1.10;;;21.70;86.80;;;;;;5055287;28;20817;-60
2022/05/12 17:27:13;;;;;;;2.07;1.00;;;21.70;87.10;;;;;;5055455;28;20503;-59
2022/05/12 17:29:40;;;;;;;2.23;1.23;;;21.70;86.20;;;;;;5055190;28;20448;-60
2022/05/12 17:32:07;;;;;;;1.47;0.90;;;21.50;87.30;;;;;;5055188;28;20535;-60
2022/05/12 17:34:33;;;;;;;1.93;1.10;;;21.40;85.70;;;;;;5054973;28;20523;-59
2022/05/12 17:37:00;;;;;;;1.90;0.83;;;21.40;86.10;;;;;;5054941;28;20449;-60
2022/05/12 17:39:26;;;;;;;3.00;0.87;;;21.30;86.20;;;;;;5055092;28;20539;-60
2022/05/12 17:41:54;;;;;;;3.10;1.10;;;21.20;86.00;;;;;;5054865;28;20476;-60
2022/05/12 17:44:21;;;;;;;1.47;0.90;;;21.10;86.50;;;;;;5054577;28;20488;-60
2022/05/12 17:46:47;;;;;;;2.40;1.00;;;21.10;86.50;;;;;;5054759;28;20452;-59
2022/05/12 17:49:14;;;;;;;1.33;0.80;;;21.10;86.80;;;;;;5054635;28;20445;-60
2022/05/12 17:51:40;;;;;;;1.77;0.87;;;21.10;86.90;;;;;;5054887;28;20444;-59
2022/05/12 17:54:07;;;;;;;1.20;0.97;;;21.10;87.10;;;;;;5054836;28;20538;-60
2022/05/12 17:56:33;;;;;;;0.97;0.83;;;21.10;87.70;;;;;;5054690;28;20450;-59
2022/05/12 17:59:01;;;;;;;1.53;0.80;;;21.00;87.10;;;;;;5054631;28;20961;-60
2022/05/12 18:01:28;;;;;;;1.73;0.90;;;21.00;87.60;;;;;;5054524;28;20544;-60
2022/05/12 18:03:55;;;;;;;2.80;1.30;;;21.00;88.10;;;;;;5054319;28;20494;-59
2022/05/12 18:06:23;;;;;;;1.23;0.90;;;21.00;87.90;;;;;;5054591;28;20506;-59
2022/05/12 18:08:50;;;;;;;1.17;0.93;;;21.00;88.80;;;;;;5054606;28;20449;-59
2022/05/12 18:11:18;;;;;;;4.17;1.03;;;21.00;88.90;;;;;;5054448;28;20456;-60
2022/05/12 18:13:44;;;;;;;1.47;0.90;;;21.00;89.10;;;;;;5054418;28;20455;-60
2022/05/12 18:16:15;;;;;;;1.67;0.90;;;21.00;89.80;;;;;;5054263;28;20457;-60
2022/05/12 18:18:42;;;;;;;1.10;0.80;;;21.00;90.30;;;;;;5054423;28;20498;-60
2022/05/12 18:21:09;;;;;;;1.17;0.80;;;21.00;90.00;;;;;;5054285;28;21034;-59
2022/05/12 18:23:35;;;;;;;1.63;0.90;;;20.90;87.90;;;;;;5054222;28;20884;-59
2022/05/12 18:26:02;;;;;;;2.20;0.90;;;20.90;88.60;;;;;;5053967;28;20480;-59
2022/05/12 18:28:29;;;;;;;1.97;1.00;;;20.80;89.00;;;;;;5054027;28;20547;-60
2022/05/12 18:30:55;;;;;;;2.03;1.00;;;20.70;89.80;;;;;;5053807;28;20452;-60
2022/05/12 18:33:23;;;;;;;2.37;1.27;;;20.70;90.10;;;;;;5053782;28;20935;-60
2022/05/12 18:35:50;;;;;;;2.50;1.27;;;20.70;90.70;;;;;;5053976;28;20815;-59
2022/05/12 18:38:19;;;;;;;2.10;1.10;;;20.70;90.60;;;;;;5053882;28;20539;-60
2022/05/12 18:40:47;;;;;;;1.90;1.27;;;20.60;90.80;;;;;;5053759;28;20547;-60
2022/05/12 18:43:16;;;;;;;2.90;1.13;;;20.60;91.10;;;;;;5053493;28;20921;-60
2022/05/12 18:45:42;;;;;;;4.33;1.23;;;20.50;91.40;;;;;;5053440;28;20553;-60
2022/05/12 18:48:09;;;;;;;1.00;0.70;;;20.40;91.70;;;;;;5053822;28;20542;-60
2022/05/12 18:50:37;;;;;;;3.03;1.27;;;20.30;91.80;;;;;;5053671;28;20449;-60
2022/05/12 18:53:04;;;;;;;1.23;0.90;;;20.20;91.90;;;;;;5053094;28;20547;-60
2022/05/12 18:55:30;;;;;;;1.60;0.90;;;20.10;92.00;;;;;;5053552;28;20447;-60
2022/05/12 18:57:57;;;;;;;1.70;0.97;;;20.10;92.00;;;;;;5053385;28;20543;-60
2022/05/12 19:00:26;;;;;;;5.17;1.33;;;20.10;92.40;;;;;;5053536;28;20535;-60
2022/05/12 19:02:53;;;;;;;4.83;1.40;;;20.00;92.50;;;;;;5053476;28;20800;-60
2022/05/12 19:05:21;;;;;;;1.37;1.00;;;19.90;92.70;;;;;;5053348;28;20533;-60
2022/05/12 19:07:50;;;;;;;3.63;1.00;;;19.80;93.10;;;;;;5053373;28;20540;-60
2022/05/12 19:10:19;;;;;;;3.17;1.10;;;19.80;93.50;;;;;;5053318;28;20452;-60
2022/05/12 19:12:46;;;;;;;1.80;1.10;;;19.70;93.80;;;;;;5053133;28;20823;-60
2022/05/12 19:15:15;;;;;;;4.00;1.37;;;19.60;94.00;;;;;;5053305;28;20452;-60
2022/05/12 19:17:45;;;;;;;1.67;1.27;;;19.60;94.10;;;;;;5053216;28;20455;-60
2022/05/12 19:20:14;;;;;;;4.33;1.40;;;19.60;94.00;;;;;;5053193;28;20547;-60
2022/05/12 19:22:40;;;;;;;1.93;1.30;;;19.50;94.10;;;;;;5053061;28;20448;-59
2022/05/12 19:25:09;;;;;;;2.03;0.90;;;19.30;94.50;;;;;;5052865;28;20480;-60
2022/05/12 19:27:36;;;;;;;1.53;1.30;;;19.30;94.50;;;;;;5053227;28;20811;-60
2022/05/12 19:30:03;;;;;;;3.10;1.30;;;19.20;94.70;;;;;;5053163;28;20453;-60
2022/05/12 19:32:32;;;;;;;5.10;1.93;;;19.10;94.70;;;;;;5053136;28;20444;-60
2022/05/12 19:34:58;;;;;;;2.30;1.80;;;19.10;94.90;;;;;;5052927;28;20453;-60
2022/05/12 19:37:25;;;;;;;3.33;1.57;;;19.10;95.00;;;;;;5052977;28;20450;-60
2022/05/12 19:39:53;;;;;;;5.47;1.40;;;19.10;95.10;;;;;;5052887;28;20518;-60
2022/05/12 19:42:21;;;;;;;3.27;1.40;;;19.10;95.40;;;;;;5052718;28;20453;-60
2022/05/12 19:44:47;;;;;;;2.47;1.20;;;19.00;95.50;;;;;;5052909;28;20472;-60
2022/05/12 19:47:17;;;;;;;5.07;1.57;;;19.00;95.30;;;;;;5052907;28;20447;-60
2022/05/12 19:49:45;;;;;;;1.97;1.60;;;19.00;95.20;;;;;;5052533;28;20510;-60
2022/05/12 19:52:12;;;;;;;1.40;1.07;;;19.10;96.40;;;;;;5052638;28;20531;-60
2022/05/12 19:54:39;;;;;;;1.83;1.27;;;19.00;97.40;;;;;;5052909;28;20544;-60
2022/05/12 19:57:06;;;;;;;1.47;1.20;;;19.00;98.50;;;;;;5052854;28;20456;-60
2022/05/12 19:59:34;;;;;;;5.00;1.43;;;19.00;98.40;;;;;;5052844;28;20859;-60
2022/05/12 20:02:00;;;;;;;1.33;1.20;;;18.90;98.50;;;;;;5052810;28;20448;-60
2022/05/12 20:04:27;;;;;;;2.70;1.13;;;18.90;98.80;;;;;;5053662;28;20452;-60
2022/05/12 20:06:53;;;;;;;1.40;1.30;;;18.90;98.70;;;;;;5057033;28;20562;-60
2022/05/12 20:09:19;;;;;;;1.60;1.50;;;18.90;98.70;;;;;;5056807;28;20455;-60
2022/05/12 20:11:51;;;;;;;1.20;1.10;;;18.80;99.10;;;;;;5056731;28;20446;-60
2022/05/12 20:14:19;;;;;;;2.23;1.77;;;18.70;99.60;;;;;;5056738;28;20450;-60
2022/05/12 20:16:48;;;;;;;2.90;1.43;;;18.60;99.90;;;;;;5056561;28;20546;-60
2022/05/12 20:19:14;;;;;;;2.43;1.53;;;18.50;99.90;;;;;;5056424;28;20505;-60
2022/05/12 20:21:41;;;;;;;3.33;1.53;;;18.40;99.90;;;;;;5056347;28;20535;-60
2022/05/12 20:24:10;;;;;;;2.37;1.30;;;18.20;99.90;;;;;;5056544;28;20568;-60
2022/05/12 20:26:36;;;;;;;2.57;1.43;;;18.10;99.90;;;;;;5056373;28;20847;-60
2022/05/12 20:29:04;;;;;;;5.10;1.43;;;18.10;99.90;;;;;;5056402;28;20480;-60
2022/05/12 20:31:31;;;;;;;2.73;2.00;;;18.10;99.90;;;;;;5056286;28;20456;-60
2022/05/12 20:33:59;;;;;;;6.03;3.20;;;18.10;99.90;;;;;;5056106;28;20947;-60
2022/05/12 20:36:26;;;;;;;2.93;2.63;;;18.00;99.90;;;;;;5056325;28;20566;-60
2022/05/12 20:38:53;;;;;;;6.07;2.37;;;18.00;99.90;;;;;;5056382;28;20944;-60
2022/05/12 20:41:19;;;;;;;2.70;2.17;;;17.90;99.90;;;;;;5056116;28;20454;-60
2022/05/12 20:43:46;;;;;;;2.63;1.63;;;17.90;99.90;;;;;;5056016;28;20541;-60
2022/05/12 20:46:12;;;;;;;2.60;1.40;;;17.80;99.90;;;;;;5056010;28;20483;-60
2022/05/12 20:48:41;;;;;;;2.47;1.80;;;17.80;99.90;;;;;;5055957;28;20518;-60
2022/05/12 20:51:12;;;;;;;1.70;1.57;;;17.80;99.90;;;;;;5056067;28;20448;-60
2022/05/12 20:53:38;;;;;;;3.27;1.57;;;17.80;99.90;;;;;;5055891;28;20940;-60
2022/05/12 20:56:06;;;;;;;4.33;1.53;;;17.80;99.90;;;;;;5055927;28;20499;-60
2022/05/12 20:58:33;;;;;;;2.00;1.80;;;17.70;99.90;;;;;;5055808;28;20452;-60
2022/05/12 21:01:02;;;;;;;2.40;1.70;;;17.80;99.90;;;;;;5055601;28;20456;-60
2022/05/12 21:03:29;;;;;;;2.23;1.50;;;17.80;99.90;;;;;;5055798;28;20460;-60
2022/05/12 21:05:56;;;;;;;1.70;1.50;;;17.80;99.90;;;;;;5055798;28;20922;-60
2022/05/12 21:08:26;;;;;;;6.10;1.93;;;17.70;99.90;;;;;;5055745;28;20860;-60
2022/05/12 21:10:53;;;;;;;3.67;2.17;;;17.70;99.90;;;;;;5055700;28;20452;-60
2022/05/12 21:13:21;;;;;;;2.87;1.70;;;17.70;99.90;;;;;;5055494;28;20497;-60
2022/05/12 21:15:48;;;;;;;4.50;1.80;;;17.60;99.90;;;;;;5055230;28;20878;-60
2022/05/12 21:18:16;;;;;;;1.67;1.57;;;17.60;99.90;;;;;;5055663;28;20547;-60
2022/05/12 21:20:43;;;;;;;2.80;1.60;;;17.50;99.90;;;;;;5055604;28;20448;-60
2022/05/12 21:23:10;;;;;;;2.03;1.80;;;17.50;99.90;;;;;;5055461;28;20455;-60
2022/05/12 21:25:38;;;;;;;3.73;2.20;;;17.60;99.90;;;;;;5055260;28;20508;-60
2022/05/12 21:28:06;;;;;;;3.13;2.27;;;17.50;99.90;;;;;;5055207;28;20480;-60
2022/05/12 21:30:34;;;;;;;4.20;2.00;;;17.50;99.90;;;;;;5055280;28;20444;-60
2022/05/12 21:33:00;;;;;;;6.13;1.93;;;17.50;99.90;;;;;;5055328;28;20452;-60
2022/05/12 21:35:29;;;;;;;9.40;8.37;;;17.40;99.90;;;;;;5055140;28;20551;-60
2022/05/12 21:37:57;;;;;;;9.50;2.93;;;17.40;99.90;;;;;;5055106;28;20448;-60
2022/05/12 21:40:26;;;;;;;4.03;2.10;;;17.30;99.90;;;;;;5054951;28;20449;-60
2022/05/12 21:42:54;;;;;;;4.17;3.70;;;17.40;99.90;;;;;;5055021;28;20554;-60
2022/05/12 21:45:47;;;;;;;4.33;3.83;;;17.30;99.90;;;;;;5055154;28;20455;-60
2022/05/12 21:48:17;;;;;;;4.23;3.83;;;17.20;99.90;;;;;;5054973;28;20781;-60
2022/05/12 21:50:45;;;;;;;3.17;2.97;;;;;;;;;;5054913;28;20449;-60
2022/05/12 21:53:12;;;;;;;3.00;2.57;;;;;;;;;;5054687;28;20451;-60
2022/05/12 21:55:40;;;;;;;2.33;2.13;;;;;;;;;;5054844;28;20441;-60
2022/05/12 22:03:39;;;;;;;1.77;1.67;;;;;;;;;;5054647;28;20420;-60
2022/05/12 22:06:06;;;;;;;3.17;1.67;;;;;;;;;;5054574;28;20550;-60
2022/05/12 22:08:33;;;;;;;1.90;1.70;;;;;;;;;;5054569;28;20491;-60
2022/05/12 22:11:00;;;;;;;4.23;1.60;;;;;;;;;;5054533;28;20448;-60
2022/05/12 22:13:29;;;;;;;2.00;1.80;;;;;;;;;;5054373;28;20448;-60
2022/05/12 22:15:56;;;;;;;4.47;2.00;;;;;;;;;;5054286;28;20631;-60
2022/05/12 22:18:23;;;;;;;2.00;1.53;;;;;;;;;;5054287;28;20441;-60
2022/05/12 22:20:50;;;;;;;2.50;1.20;;;;;;;;;;5054350;28;20539;-60
2022/05/12 22:23:17;;;;;;;1.90;1.30;;;;;;;;;;5054265;28;20452;-60
2022/05/12 22:25:44;;;;;;;2.40;1.63;;;;;;;;;;5054137;28;20472;-60
2022/05/12 22:28:11;;;;;;;2.60;1.10;;;;;;;;;;5053337;28;20543;-60
2022/05/12 22:30:40;;;;;;;3.13;1.20;;;;;;;;;;5053931;28;20444;-60
2022/05/12 22:33:08;;;;;;;1.47;1.37;;;;;;;;;;5054144;28;20440;-60
2022/05/12 22:35:35;;;;;;;1.77;1.50;;;;;;;;;;5054045;28;20448;-60
2022/05/12 22:38:02;;;;;;;3.47;1.83;;;;;;;;;;5053944;28;20534;-60
2022/05/12 22:40:30;;;;;;;1.50;1.40;;;;;;;;;;5053903;28;20809;-60
2022/05/12 22:42:57;;;;;;;1.60;1.50;;;;;;;;;;5053551;28;20503;-60
2022/05/12 22:45:24;;;;;;;4.80;2.07;;;;;;;;;;5053838;28;20472;-60
2022/05/12 22:47:52;;;;;;;1.90;1.77;;;;;;;;;;5053843;28;20483;-60
2022/05/12 22:50:19;;;;;;;3.50;1.40;;;;;;;;;;5053777;28;20541;-60
2022/05/12 22:52:47;;;;;;;1.43;1.33;;;;;;;;;;5053684;28;20449;-60
2022/05/12 22:55:14;;;;;;;5.33;1.63;;;;;;;;;;5053557;28;20883;-60
2022/05/12 22:57:41;;;;;;;1.93;1.60;;;;;;;;;;5053437;28;20817;-60
2022/05/12 23:00:09;;;;;;;4.37;1.40;;;;;;;;;;5053427;28;21011;-60
2022/05/12 23:02:36;;;;;;;1.97;1.77;;;;;;;;;;5053596;28;20487;-60
2022/05/12 23:05:05;;;;;;;1.90;1.50;;;;;;;;;;5053622;28;20451;-60
2022/05/12 23:07:32;;;;;;;2.23;1.87;;;;;;;;;;5053518;28;20488;-60
2022/05/12 23:09:59;;;;;;;1.67;1.43;;;;;;;;;;5053409;28;20538;-60
2022/05/12 23:12:26;;;;;;;2.40;1.63;;;;;;;;;;5053298;28;20539;-60
2022/05/12 23:14:53;;;;;;;2.20;1.37;;;;;;;;;;5053387;28;20554;-60
2022/05/12 23:17:20;;;;;;;1.60;1.50;;;;;;;;;;5053225;28;20943;-60
2022/05/12 23:22:33;;;;;;;2.40;1.30;;;;;;;;;;5053199;28;20483;-60
2022/05/12 23:25:00;;;;;;;2.03;1.50;;;;;;;;;;5053353;28;20535;-60
2022/05/12 23:27:27;;;;;;;1.87;1.63;;;;;;;;;;5053204;28;20575;-60
2022/05/12 23:29:54;;;;;;;4.87;1.20;;;;;;;;;;5053175;28;20484;-60
2022/05/12 23:32:21;;;;;;;1.73;1.63;;;;;;;;;;5053155;28;20887;-60
2022/05/12 23:34:48;;;;;;;1.60;1.27;;;;;;;;;;5052973;28;20544;-60
2022/05/12 23:37:15;;;;;;;3.63;1.30;;;;;;;;;;5052893;28;20543;-60
2022/05/12 23:39:43;;;;;;;1.50;1.40;;;;;;;;;;5052964;28;20454;-60
2022/05/12 23:42:10;;;;;;;3.83;1.87;;;;;;;;;;5052847;28;21023;-60
2022/05/12 23:44:38;;;;;;;2.50;1.60;;;;;;;;;;5052721;28;20571;-60
2022/05/12 23:47:06;;;;;;;2.40;1.60;;;;;;;;;;5052809;28;20523;-60
2022/05/12 23:49:35;;;;;;;2.27;1.57;;;;;;;;;;5052787;28;20986;-60
2022/05/12 23:52:02;;;;;;;3.27;1.60;;;;;;;;;;5053057;28;20543;-60
2022/05/12 23:54:28;;;;;;;3.70;1.57;;;;;;;;;;5052885;28;20527;-60
2022/05/12 23:56:58;;;;;;;1.60;1.50;;;;;;;;;;5052866;28;20451;-60
2022/05/12 23:59:25;;;;;;;1.67;1.30;;;;;;;;;;5052835;28;20506;-60
